Lyndonville, VT

3:57 PM EST on March 02, 2015 (GMT -0500)
Island Pond | Change Station
CLOSE
Current Station
Personal Weather Station
Location: Brighton, VT
Elevation: 1204 ft
Nearby Weather Stations

Elev 1204 ft 44.81 °N, 71.86 °W | Updated 7 seconds ago

Mostly Cloudy
Mostly Cloudy
19.9 °F
Feels Like 8 °F
N
11.5
Wind Variable Wind from NW
Gusts 11.5 mph

Today
High -- | Low -- °F
--% Chance of Precip.
Yesterday
High -- | Low -- °F
Precip. -- in
6:24 AM 5:36 PM
Waxing Gibbous, 93% visible
Pressure 29.93 in
Visibility 1.8 miles
Clouds Scattered Clouds 1200 ft
Scattered Clouds 1800 ft
Mostly Cloudy 3300 ft
Windchill 8 °F
Dew Point 15 °F
Humidity 81%
Rainfall 0.00 in
Snow Depth Not available.
UV 1 out of 12
Pollen .40 out of 12
Air Quality Not available.
Flu Activity Not available.
METAR KCDA 022035Z AUTO 24018G31KT 1 3/4SM UP SCT012 SCT018 BKN033 M05/M11 A2993 RMK AO2 VIS 3/4V3 T10461114

More Conditions Fewer Conditions

Pressure 29.93 in
Visibility 1.8 miles
Clouds Scattered Clouds 1200 ft
Scattered Clouds 1800 ft
Mostly Cloudy 3300 ft
Windchill 8 °F
Dew Point 15 °F
Humidity 81%
Rainfall 0.00 in
Snow Depth Not available.
UV 1 out of 12
Pollen .40 out of 12
Air Quality Not available.
Flu Activity Not available.
METAR KCDA 022035Z AUTO 24018G31KT 1 3/4SM UP SCT012 SCT018 BKN033 M05/M11 A2993 RMK AO2 VIS 3/4V3 T10461114

More Conditions Fewer Conditions

10-Day Weather Forecast

Almanac

Astronomy

Mar. 02, 2015 Rise Set
Actual Time
Civil Twilight
Nautical Twilight
Astronomical Twilight
Moon
Length of Visible Light
Length of Day
Tomorrow will be .
, % of the Moon is Illuminated

Today's Extremes

State Highs State Lows

Community

WunderPhotos

Upload Photos

1,801,941 photos uploaded!

WunderBlogs® & News

Nearby

Air Quality

  Air Quality AQ Index Pollutant
Not available.

Snow Depth

Station Depth Elevation

Earthquake Activity

City Distance Mag. Time & Date
Minimum magnitude displayed is 2.5.

Coastal Water Temperatures

Place Temperature

Nearby Weather Stations